createdAt,value
2018-04-13T00:00:28.250Z,88.90
2018-04-13T00:03:01.539Z,88.80
2018-04-13T00:05:30.156Z,88.50
2018-04-13T00:08:03.301Z,88.20
2018-04-13T00:10:32.296Z,87.80
2018-04-13T00:13:05.603Z,87.80
2018-04-13T00:15:34.602Z,87.60
2018-04-13T00:18:08.207Z,87.60
2018-04-13T00:20:38.643Z,87.60
2018-04-13T00:23:11.616Z,87.80
2018-04-13T00:25:40.197Z,87.80
2018-04-13T00:28:12.968Z,87.60
2018-04-13T00:30:42.300Z,87.50
2018-04-13T00:33:15.211Z,87.50
2018-04-13T00:35:45.664Z,87.50
2018-04-13T00:38:18.629Z,87.50
2018-04-13T00:40:47.979Z,88.20
2018-04-13T00:45:50.215Z,87.10
2018-04-13T00:48:23.451Z,87.10
2018-04-13T00:50:52.847Z,88.00
2018-04-13T00:53:30.339Z,87.30
2018-04-13T00:56:00.204Z,87.80
2018-04-13T00:58:29.848Z,88.50
2018-04-13T01:00:58.626Z,88.10
2018-04-13T01:03:29.539Z,88.30
2018-04-13T01:05:59.600Z,88.30
2018-04-13T01:08:40.828Z,88.00
2018-04-13T01:11:09.773Z,89.10
2018-04-13T01:13:39.132Z,87.10
2018-04-13T01:16:08.582Z,87.80
2018-04-13T01:18:38.202Z,87.80
2018-04-13T01:21:07.297Z,87.20
2018-04-13T01:23:38.321Z,87.30
2018-04-13T01:26:07.946Z,87.30
2018-04-13T01:28:41.136Z,87.50
2018-04-13T01:31:09.723Z,87.60
2018-04-13T01:33:42.999Z,87.00
2018-04-13T01:36:12.371Z,86.50
2018-04-13T01:38:45.163Z,86.80
2018-04-13T01:41:14.333Z,86.90
2018-04-13T01:43:47.644Z,87.60
2018-04-13T01:46:17.367Z,87.00
2018-04-13T01:48:49.712Z,87.10
2018-04-13T01:54:01.262Z,87.50
2018-04-13T01:56:29.856Z,87.20
2018-04-13T01:58:59.110Z,87.00
2018-04-13T02:01:27.700Z,87.00
2018-04-13T02:04:00.283Z,87.80
2018-04-13T02:06:29.267Z,87.30
2018-04-13T02:09:10.533Z,87.30
2018-04-13T02:11:39.540Z,87.50
2018-04-13T02:14:08.140Z,87.50
2018-04-13T02:16:37.049Z,88.60
2018-04-13T02:19:05.912Z,88.00
2018-04-13T02:21:34.374Z,88.00
2018-04-13T02:24:11.492Z,87.60
2018-04-13T02:26:40.640Z,87.90
2018-04-13T02:29:12.624Z,87.60
2018-04-13T02:31:42.238Z,87.90
2018-04-13T02:34:13.680Z,88.30
2018-04-13T02:36:42.111Z,88.70
2018-04-13T02:39:16.290Z,88.80
2018-04-13T02:41:45.048Z,88.60
2018-04-13T02:44:18.520Z,88.50
2018-04-13T02:46:47.434Z,88.20
2018-04-13T02:49:21.413Z,88.50
2018-04-13T02:51:49.921Z,88.70
2018-04-13T02:54:23.737Z,88.60
2018-04-13T02:56:52.543Z,88.80
2018-04-13T02:59:25.267Z,89.00
2018-04-13T03:01:53.736Z,88.80
2018-04-13T03:04:26.891Z,88.40
2018-04-13T03:06:55.360Z,88.20
2018-04-13T03:11:58.815Z,88.30
2018-04-13T03:14:39.719Z,87.60
2018-04-13T03:17:09.667Z,87.50
2018-04-13T03:19:38.123Z,87.30
2018-04-13T03:22:07.741Z,87.20
2018-04-13T03:24:37.619Z,87.40
2018-04-13T03:29:40.099Z,87.90
2018-04-13T03:32:08.844Z,87.20
2018-04-13T03:34:41.947Z,87.20
2018-04-13T03:37:10.422Z,87.30
2018-04-13T03:39:43.705Z,86.60
2018-04-13T03:42:12.236Z,87.00
2018-04-13T03:44:44.991Z,87.00
2018-04-13T03:47:14.573Z,87.60
2018-04-13T03:49:47.888Z,86.10
2018-04-13T03:52:16.371Z,85.50
2018-04-13T03:54:51.460Z,85.70
2018-04-13T03:57:21.076Z,85.60
2018-04-13T04:02:22.642Z,85.00
2018-04-13T04:07:24.803Z,86.10
2018-04-13T04:10:06.483Z,86.20
2018-04-13T04:12:35.875Z,86.60
2018-04-13T04:15:04.439Z,86.80
2018-04-13T04:17:32.923Z,87.00
2018-04-13T04:21:18.877Z,87.00
2018-04-13T04:28:39.160Z,86.60
2018-04-13T04:31:20.081Z,86.10
2018-04-13T04:33:49.205Z,85.90
2018-04-13T04:36:18.457Z,85.60
2018-04-13T04:38:47.680Z,85.50
2018-04-13T04:41:17.674Z,85.70
2018-04-13T04:43:47.270Z,85.70
2018-04-13T04:46:18.768Z,86.00
2018-04-13T04:51:21.448Z,86.00
2018-04-13T04:53:50.720Z,85.90
2018-04-13T04:56:21.969Z,85.90
2018-04-13T05:01:32.861Z,86.00
2018-04-13T05:04:02.517Z,84.60
2018-04-13T05:06:32.524Z,84.50
2018-04-13T05:09:01.629Z,84.10
2018-04-13T05:11:30.139Z,83.70
2018-04-13T05:13:59.747Z,84.00
2018-04-13T05:21:33.005Z,82.70
2018-04-13T05:26:43.873Z,82.40
2018-04-13T05:29:13.412Z,82.50
2018-04-13T05:36:42.253Z,80.60
2018-04-13T05:41:42.036Z,81.90
2018-04-13T05:44:11.548Z,81.80
2018-04-13T05:49:13.167Z,81.40
2018-04-13T05:51:47.033Z,80.50
2018-04-13T05:54:16.269Z,81.20
2018-04-13T05:56:49.223Z,79.60
2018-04-13T05:59:19.535Z,78.30
2018-04-13T06:01:52.367Z,77.00
2018-04-13T06:04:20.849Z,76.80
2018-04-13T06:06:54.263Z,75.70
2018-04-13T06:09:22.987Z,74.50
2018-04-13T06:11:56.544Z,75.90
2018-04-13T06:14:25.026Z,74.80
2018-04-13T06:16:58.872Z,75.30
2018-04-13T06:19:27.743Z,74.40
2018-04-13T06:22:00.911Z,73.90
2018-04-13T06:24:29.435Z,73.90
2018-04-13T06:27:02.762Z,74.90
2018-04-13T06:29:33.024Z,75.10
2018-04-13T06:32:08.444Z,75.10
2018-04-13T06:34:38.107Z,73.30
2018-04-13T06:39:40.060Z,71.00
2018-04-13T06:42:13.582Z,70.00
2018-04-13T06:44:43.275Z,69.50
2018-04-13T06:47:16.916Z,66.90
2018-04-13T06:49:46.469Z,66.20
2018-04-13T06:52:18.667Z,65.90
2018-04-13T06:54:47.571Z,66.80
2018-04-13T06:57:20.245Z,68.50
2018-04-13T06:59:48.805Z,69.80
2018-04-13T07:02:30.832Z,68.80
2018-04-13T07:04:59.545Z,69.90
2018-04-13T07:07:28.407Z,70.00
2018-04-13T07:12:28.211Z,70.70
2018-04-13T07:14:57.907Z,71.30
2018-04-13T07:17:29.728Z,72.70
2018-04-13T07:19:58.487Z,71.90
2018-04-13T07:22:30.991Z,71.10
2018-04-13T07:24:59.496Z,72.00
2018-04-13T07:27:40.982Z,72.40
2018-04-13T07:30:09.453Z,70.30
2018-04-13T07:32:38.221Z,67.60
2018-04-13T07:35:06.705Z,65.90
2018-04-13T07:37:38.236Z,67.10
2018-04-13T07:42:39.965Z,61.90
2018-04-13T07:45:09.304Z,59.80
2018-04-13T07:47:51.019Z,57.70
2018-04-13T07:50:20.048Z,55.80
2018-04-13T07:52:48.515Z,55.40
2018-04-13T07:55:17.848Z,57.30
2018-04-13T07:57:47.845Z,58.40
2018-04-13T08:00:18.347Z,58.30
2018-04-13T08:02:49.536Z,55.90
2018-04-13T08:05:18.427Z,54.30
2018-04-13T08:07:51.927Z,52.90
2018-04-13T08:10:21.167Z,51.80
2018-04-13T08:12:54.483Z,49.70
2018-04-13T08:15:23.008Z,50.50
2018-04-13T08:17:56.080Z,49.40
2018-04-13T08:20:24.579Z,51.80
2018-04-13T08:22:58.154Z,52.50
2018-04-13T08:25:26.699Z,53.30
2018-04-13T08:28:01.673Z,54.20
2018-04-13T08:30:30.187Z,54.30
2018-04-13T08:43:38.292Z,56.10
2018-04-13T08:46:21.822Z,56.60
2018-04-13T08:48:50.817Z,58.00
2018-04-13T08:51:20.397Z,58.00
2018-04-13T08:53:49.653Z,59.90
2018-04-13T08:56:19.234Z,58.70
2018-04-13T09:01:21.724Z,59.60
2018-04-13T09:03:50.512Z,58.60
2018-04-13T09:08:50.105Z,59.40
2018-04-13T09:11:23.019Z,59.60
2018-04-13T09:13:51.520Z,59.50
2018-04-13T09:16:24.801Z,60.00
2018-04-13T09:18:53.673Z,60.60
2018-04-13T09:21:35.916Z,61.30
2018-04-13T09:24:04.682Z,61.70
2018-04-13T09:26:33.579Z,62.00
2018-04-13T09:29:02.820Z,63.10
2018-04-13T09:34:01.224Z,63.60
2018-04-13T09:36:35.512Z,62.70
2018-04-13T09:39:04.503Z,63.10
2018-04-13T09:46:39.867Z,62.90
2018-04-13T09:49:08.840Z,62.10
2018-04-13T09:51:50.515Z,62.50
2018-04-13T09:54:20.450Z,61.60
2018-04-13T09:56:48.903Z,61.20
2018-04-13T09:59:18.597Z,60.90
2018-04-13T10:01:49.063Z,60.60
2018-04-13T10:04:18.943Z,60.20
2018-04-13T10:06:51.221Z,60.30
2018-04-13T10:09:20.348Z,61.40
2018-04-13T10:11:52.670Z,63.30
2018-04-13T10:14:21.135Z,61.80
2018-04-13T10:16:57.179Z,61.30
2018-04-13T10:19:26.795Z,61.50
2018-04-13T10:21:57.520Z,62.60
2018-04-13T10:24:26.740Z,62.70
2018-04-13T10:27:08.635Z,62.40
2018-04-13T10:29:38.878Z,59.40
2018-04-13T10:32:07.749Z,60.90
2018-04-13T10:39:36.307Z,59.70
2018-04-13T10:42:17.320Z,59.00
2018-04-13T10:47:15.567Z,59.80
2018-04-13T10:49:44.266Z,59.40
2018-04-13T10:52:13.829Z,59.40
2018-04-13T10:54:43.640Z,59.10
2018-04-13T10:57:16.907Z,59.30
2018-04-13T11:02:18.532Z,59.80
2018-04-13T11:07:20.625Z,59.40
2018-04-13T11:09:49.088Z,60.40
2018-04-13T11:12:22.405Z,60.10
2018-04-13T11:17:23.890Z,59.80
2018-04-13T11:19:53.503Z,60.20
2018-04-13T11:22:27.376Z,61.60
2018-04-13T11:24:55.908Z,61.30
2018-04-13T11:27:29.577Z,60.80
2018-04-13T11:29:58.585Z,61.30
2018-04-13T11:32:31.700Z,62.40
2018-04-13T11:35:00.945Z,62.10
2018-04-13T11:37:34.202Z,62.10
2018-04-13T11:40:03.105Z,61.70
2018-04-13T11:42:44.091Z,61.90
2018-04-13T11:45:12.987Z,62.50
2018-04-13T11:47:41.579Z,63.40
2018-04-13T11:50:10.145Z,63.20
2018-04-13T11:52:41.212Z,63.70
2018-04-13T11:55:09.823Z,64.40
2018-04-13T11:57:43.229Z,64.00
2018-04-13T12:00:13.195Z,63.70
2018-04-13T12:02:46.331Z,62.00
2018-04-13T12:05:17.315Z,64.40
2018-04-13T12:07:49.425Z,64.70
2018-04-13T12:10:17.972Z,64.10
2018-04-13T12:12:59.316Z,64.30
2018-04-13T12:15:28.176Z,64.40
2018-04-13T12:17:58.436Z,64.50
2018-04-13T12:20:28.061Z,64.10
2018-04-13T12:22:56.563Z,65.00
2018-04-13T12:25:25.480Z,65.00
2018-04-13T12:27:58.401Z,64.80
2018-04-13T12:30:26.974Z,64.50
2018-04-13T12:32:59.659Z,65.00
2018-04-13T12:35:28.886Z,65.30
2018-04-13T12:38:02.718Z,64.00
2018-04-13T12:40:33.154Z,62.60
2018-04-13T12:43:06.432Z,63.80
2018-04-13T12:45:38.152Z,63.10
2018-04-13T12:48:10.055Z,63.30
2018-04-13T12:50:38.512Z,63.40
2018-04-13T12:55:41.839Z,61.60
2018-04-13T12:58:23.569Z,61.30
2018-04-13T13:00:53.472Z,61.50
2018-04-13T13:03:23.095Z,60.70
2018-04-13T13:05:51.971Z,61.20
2018-04-13T13:08:21.516Z,61.00
2018-04-13T13:10:50.009Z,60.50
2018-04-13T13:13:20.313Z,60.80
2018-04-13T13:15:50.224Z,61.10
2018-04-13T13:18:23.188Z,61.00
2018-04-13T13:20:53.231Z,60.50
2018-04-13T13:23:26.285Z,61.60
2018-04-13T13:25:55.631Z,60.90
2018-04-13T13:28:26.882Z,61.00
2018-04-13T13:30:56.543Z,62.50
2018-04-13T13:33:28.950Z,63.00
2018-04-13T13:38:39.508Z,62.20
2018-04-13T13:41:09.873Z,62.90
2018-04-13T13:43:38.388Z,63.80
2018-04-13T13:48:36.650Z,61.30
2018-04-13T13:51:05.155Z,62.20
2018-04-13T13:53:38.000Z,61.00
2018-04-13T13:56:08.255Z,62.40
2018-04-13T13:58:41.394Z,61.10
2018-04-13T14:01:11.024Z,61.00
2018-04-13T14:03:42.892Z,60.60
2018-04-13T14:06:11.428Z,60.50
2018-04-13T14:08:44.104Z,61.20
2018-04-13T14:11:14.352Z,59.70
2018-04-13T14:13:56.308Z,60.10
2018-04-13T14:16:25.223Z,59.90
2018-04-13T14:18:54.088Z,59.80
2018-04-13T14:21:24.099Z,60.40
2018-04-13T14:23:53.395Z,60.40
2018-04-13T14:28:55.324Z,60.20
2018-04-13T14:31:23.852Z,62.00
2018-04-13T14:33:57.944Z,61.90
2018-04-13T14:36:26.741Z,61.40
2018-04-13T14:39:00.627Z,61.20
2018-04-13T14:41:29.099Z,61.10
2018-04-13T14:44:11.235Z,61.30
2018-04-13T14:46:39.724Z,61.80
2018-04-13T14:49:08.484Z,62.00
2018-04-13T14:51:38.087Z,62.50
2018-04-13T14:56:37.135Z,63.10
2018-04-13T14:59:13.528Z,63.10
2018-04-13T15:01:43.179Z,63.70
2018-04-13T15:04:15.132Z,63.80
2018-04-13T15:06:45.208Z,64.10
2018-04-13T15:09:15.963Z,64.50
2018-04-13T15:11:44.506Z,63.80
2018-04-13T15:14:26.124Z,63.40
2018-04-13T15:16:55.377Z,63.80
2018-04-13T15:19:25.111Z,63.40
2018-04-13T15:21:54.331Z,63.80
2018-04-13T15:24:23.220Z,63.70
2018-04-13T15:26:53.652Z,63.30
2018-04-13T15:29:23.967Z,63.80
2018-04-13T15:31:53.221Z,63.80
2018-04-13T15:34:26.287Z,64.10
2018-04-13T15:36:54.827Z,64.60
2018-04-13T15:39:28.582Z,63.80
2018-04-13T15:44:30.975Z,64.00
2018-04-13T15:46:59.447Z,62.80
2018-04-13T15:49:33.347Z,64.10
2018-04-13T15:52:03.351Z,65.10
2018-04-13T15:54:34.941Z,64.80
2018-04-13T15:57:05.334Z,66.50
2018-04-13T15:59:36.936Z,65.30
2018-04-13T16:04:39.724Z,65.80
2018-04-13T16:07:08.217Z,65.60
2018-04-13T16:09:50.738Z,65.60
2018-04-13T16:12:20.064Z,66.30
2018-04-13T16:14:50.172Z,66.90
2018-04-13T16:17:19.835Z,67.40
2018-04-13T16:19:48.947Z,67.50
2018-04-13T16:22:18.560Z,67.70
2018-04-13T16:24:50.646Z,68.20
2018-04-13T16:27:20.291Z,69.20
2018-04-13T16:29:51.609Z,70.30
2018-04-13T16:32:20.915Z,68.80
2018-04-13T16:34:55.368Z,68.50
2018-04-13T16:37:23.907Z,68.40
2018-04-13T16:39:56.923Z,68.80
2018-04-13T16:42:26.048Z,69.00
2018-04-13T16:44:59.124Z,69.00
2018-04-13T16:47:28.379Z,69.10
2018-04-13T16:50:01.736Z,69.50
2018-04-13T16:52:30.226Z,69.80
2018-04-13T16:55:05.024Z,69.10
2018-04-13T16:57:34.604Z,69.80
2018-04-13T17:00:07.370Z,69.60
2018-04-13T17:02:36.612Z,69.50
2018-04-13T17:05:17.987Z,68.80
2018-04-13T17:07:47.035Z,69.00
2018-04-13T17:10:16.581Z,69.50
2018-04-13T17:12:45.436Z,69.50
2018-04-13T17:15:15.110Z,69.10
2018-04-13T17:17:44.671Z,69.80
2018-04-13T17:20:18.049Z,70.30
2018-04-13T17:22:47.243Z,71.80
2018-04-13T17:27:58.457Z,71.60
2018-04-13T17:30:26.924Z,71.80
2018-04-13T17:32:56.232Z,72.80
2018-04-13T17:35:25.331Z,72.20
2018-04-13T17:37:54.927Z,71.70
2018-04-13T17:40:28.400Z,71.60
2018-04-13T17:42:57.180Z,72.10
2018-04-13T17:45:29.685Z,72.00
2018-04-13T17:47:58.968Z,72.90
2018-04-13T17:50:32.180Z,72.70
2018-04-13T17:53:01.742Z,73.30
2018-04-13T17:55:34.443Z,72.70
2018-04-13T17:58:03.300Z,72.90
2018-04-13T18:00:36.146Z,72.90
2018-04-13T18:03:04.602Z,73.00
2018-04-13T18:05:37.715Z,73.00
2018-04-13T18:08:06.625Z,73.00
2018-04-13T18:10:39.335Z,73.10
2018-04-13T18:13:08.472Z,73.50
2018-04-13T18:20:46.913Z,74.60
2018-04-13T18:23:16.617Z,75.00
2018-04-13T18:25:48.125Z,75.50
2018-04-13T18:30:50.877Z,75.30
2018-04-13T18:33:20.412Z,75.80
2018-04-13T18:36:02.064Z,75.30
2018-04-13T18:38:31.724Z,76.00
2018-04-13T18:41:01.036Z,75.20
2018-04-13T18:43:29.905Z,75.20
2018-04-13T18:45:58.751Z,75.40
2018-04-13T18:53:31.013Z,76.10
2018-04-13T18:56:04.125Z,76.30
2018-04-13T18:58:33.273Z,76.10
2018-04-13T19:01:06.796Z,76.10
2018-04-13T19:03:36.505Z,76.00
2018-04-13T19:06:18.652Z,77.10
2018-04-13T19:11:16.888Z,77.10
2018-04-13T19:13:45.763Z,77.80
2018-04-13T19:16:15.010Z,78.10
2018-04-13T19:18:43.499Z,78.50
2018-04-13T19:21:24.451Z,78.70
2018-04-13T19:23:53.334Z,78.70
2018-04-13T19:26:23.581Z,79.10
2018-04-13T19:28:53.179Z,79.20
2018-04-13T19:31:23.168Z,79.50
2018-04-13T19:33:51.950Z,79.80
2018-04-13T19:36:23.681Z,80.20
2018-04-13T19:38:53.291Z,80.40
2018-04-13T19:41:24.478Z,80.60
2018-04-13T19:43:53.395Z,80.70
2018-04-13T19:46:26.959Z,81.30
2018-04-13T19:48:55.704Z,81.00
2018-04-13T19:51:28.554Z,82.00
2018-04-13T19:53:57.035Z,81.80
2018-04-13T19:56:30.575Z,81.80
2018-04-13T19:59:00.561Z,81.70
2018-04-13T20:01:42.115Z,81.60
2018-04-13T20:04:10.895Z,81.00
2018-04-13T20:06:40.595Z,81.10
2018-04-13T20:09:09.128Z,81.00
2018-04-13T20:11:38.609Z,81.10
2018-04-13T20:14:07.115Z,81.50
2018-04-13T20:16:48.478Z,81.30
2018-04-13T20:19:18.800Z,81.30
2018-04-13T20:21:48.872Z,81.40
2018-04-13T20:24:18.530Z,81.50
2018-04-13T20:29:16.847Z,81.80
2018-04-13T20:31:48.120Z,83.30
2018-04-13T20:39:19.258Z,82.00
2018-04-13T20:41:52.256Z,82.20
2018-04-13T20:44:20.725Z,81.90
2018-04-13T20:46:54.187Z,82.10
2018-04-13T20:49:23.721Z,82.10
2018-04-13T20:52:06.303Z,82.10
2018-04-13T20:54:35.881Z,82.20
2018-04-13T20:57:04.457Z,82.70
2018-04-13T21:02:04.066Z,83.20
2018-04-13T21:07:05.292Z,83.70
2018-04-13T21:09:33.801Z,83.80
2018-04-13T21:12:16.624Z,83.90
2018-04-13T21:14:46.304Z,84.50
2018-04-13T21:17:17.435Z,84.30
2018-04-13T21:22:16.085Z,84.50
2018-04-13T21:24:45.409Z,85.20
2018-04-13T21:27:15.893Z,85.40
2018-04-13T21:29:45.877Z,84.70
2018-04-13T21:32:17.601Z,84.80
2018-04-13T21:34:47.124Z,84.40
2018-04-13T21:37:19.895Z,84.50
2018-04-13T21:39:49.201Z,85.40
2018-04-13T21:42:22.616Z,84.70
2018-04-13T21:44:52.141Z,84.50
2018-04-13T21:47:23.419Z,84.40
2018-04-13T21:52:34.347Z,84.30
2018-04-13T21:55:03.568Z,84.10
2018-04-13T21:57:32.132Z,84.10
2018-04-13T22:00:00.702Z,84.20
2018-04-13T22:02:29.751Z,84.00
2018-04-13T22:04:58.804Z,84.30
2018-04-13T22:07:32.064Z,84.10
2018-04-13T22:10:03.740Z,84.90
2018-04-13T22:15:09.040Z,83.90
2018-04-13T22:17:38.272Z,83.60
2018-04-13T22:20:08.320Z,83.40
2018-04-13T22:22:38.488Z,83.50
2018-04-13T22:25:07.072Z,83.40
2018-04-13T22:27:48.381Z,83.40
2018-04-13T22:30:17.314Z,83.40
2018-04-13T22:35:16.133Z,83.20
2018-04-13T22:37:46.046Z,83.60
2018-04-13T22:40:14.576Z,83.00
2018-04-13T22:42:47.452Z,83.00
2018-04-13T22:45:17.169Z,83.50
2018-04-13T22:47:50.894Z,83.00
2018-04-13T22:50:19.419Z,83.00
2018-04-13T22:53:01.870Z,83.00
2018-04-13T22:55:30.615Z,83.20
2018-04-13T22:57:59.112Z,83.30
2018-04-13T23:00:28.381Z,83.50
2018-04-13T23:02:58.352Z,83.50
2018-04-13T23:05:26.856Z,83.40
2018-04-13T23:08:03.152Z,83.50
2018-04-13T23:10:31.671Z,83.60
2018-04-13T23:13:02.902Z,83.80
2018-04-13T23:18:13.715Z,84.10
2018-04-13T23:20:42.613Z,84.60
2018-04-13T23:23:11.909Z,85.40
2018-04-13T23:25:41.896Z,85.00
2018-04-13T23:28:12.656Z,85.10
2018-04-13T23:30:41.545Z,85.10
2018-04-13T23:33:22.712Z,84.80
2018-04-13T23:35:51.868Z,84.80
2018-04-13T23:38:21.119Z,85.00
2018-04-13T23:40:50.025Z,84.30
2018-04-13T23:45:49.338Z,84.20
2018-04-13T23:48:20.271Z,84.50
2018-04-13T23:50:50.009Z,84.60
2018-04-13T23:53:31.279Z,84.80
2018-04-13T23:56:00.817Z,84.80
2018-04-13T23:58:29.347Z,85.00
